createdAt,value
2023-08-31T00:00:28.230Z,51.74
2023-08-31T00:01:28.296Z,51.61
2023-08-31T00:02:28.366Z,51.48
2023-08-31T00:03:28.303Z,51.89
2023-08-31T00:04:28.318Z,52.12
2023-08-31T00:05:28.243Z,52.24
2023-08-31T00:06:28.252Z,51.88
2023-08-31T00:07:28.243Z,52.25
2023-08-31T00:08:28.301Z,52.34
2023-08-31T00:09:28.169Z,51.74
2023-08-31T00:10:28.189Z,51.74
2023-08-31T00:11:28.205Z,51.80
2023-08-31T00:12:28.139Z,51.87
2023-08-31T00:13:28.157Z,51.56
2023-08-31T00:14:28.197Z,52.19
2023-08-31T00:15:28.092Z,51.98
2023-08-31T00:16:28.109Z,52.27
2023-08-31T00:17:28.188Z,51.94
2023-08-31T00:18:28.111Z,52.35
2023-08-31T00:19:28.112Z,51.93
2023-08-31T00:20:28.114Z,51.84
2023-08-31T00:21:28.117Z,51.66
2023-08-31T00:22:28.093Z,51.65
2023-08-31T00:23:28.128Z,51.80
2023-08-31T00:24:28.035Z,51.74
2023-08-31T00:25:28.036Z,51.89
2023-08-31T00:26:28.077Z,53.96
2023-08-31T00:27:28.053Z,52.04
2023-08-31T00:28:27.990Z,52.02
2023-08-31T00:29:28.004Z,52.07
2023-08-31T00:30:28.099Z,51.91
2023-08-31T00:31:28.001Z,58.43
2023-08-31T00:32:28.076Z,53.15
2023-08-31T00:33:27.982Z,52.88
2023-08-31T00:34:27.979Z,52.21
2023-08-31T00:35:28.005Z,53.07
2023-08-31T00:36:28.021Z,51.79
2023-08-31T00:37:28.032Z,51.91
2023-08-31T00:38:28.060Z,52.68
2023-08-31T00:39:27.943Z,51.71
2023-08-31T00:40:27.993Z,51.70
2023-08-31T00:41:27.956Z,51.83
2023-08-31T00:42:27.902Z,51.57
2023-08-31T00:43:27.925Z,51.72
2023-08-31T00:44:28.000Z,52.20
2023-08-31T00:45:27.915Z,52.11
2023-08-31T00:46:27.985Z,52.07
2023-08-31T00:47:27.906Z,51.95
2023-08-31T00:48:27.898Z,52.99
2023-08-31T00:49:27.856Z,52.49
2023-08-31T00:50:27.925Z,52.53
2023-08-31T00:51:27.846Z,52.53
2023-08-31T00:52:27.892Z,52.17
2023-08-31T00:53:27.907Z,53.91
2023-08-31T00:54:27.827Z,52.54
2023-08-31T00:55:27.832Z,52.93
2023-08-31T00:56:27.886Z,54.20
2023-08-31T00:57:27.904Z,55.83
2023-08-31T00:58:27.776Z,52.39
2023-08-31T00:59:27.800Z,52.13
2023-08-31T01:00:27.807Z,52.20
2023-08-31T01:01:27.837Z,52.12
2023-08-31T01:02:31.506Z,51.85
2023-08-31T01:03:28.866Z,52.05
2023-08-31T01:04:27.830Z,51.93
2023-08-31T01:05:27.808Z,51.92
2023-08-31T01:06:27.708Z,51.92
2023-08-31T01:07:27.726Z,52.00
2023-08-31T01:08:27.830Z,52.11
2023-08-31T01:09:27.740Z,51.95
2023-08-31T01:10:27.793Z,51.76
2023-08-31T01:11:27.707Z,51.85
2023-08-31T01:12:27.752Z,51.87
2023-08-31T01:13:27.730Z,52.16
2023-08-31T01:14:27.779Z,52.03
2023-08-31T01:15:27.750Z,54.53
2023-08-31T01:16:27.767Z,53.19
2023-08-31T01:17:27.775Z,52.23
2023-08-31T01:18:27.696Z,51.87
2023-08-31T01:19:27.622Z,52.08
2023-08-31T01:20:27.741Z,51.93
2023-08-31T01:21:27.635Z,52.04
2023-08-31T01:22:27.637Z,52.12
2023-08-31T01:23:27.595Z,52.12
2023-08-31T01:24:27.671Z,52.08
2023-08-31T01:25:27.672Z,52.03
2023-08-31T01:26:27.642Z,51.97
2023-08-31T01:27:27.632Z,52.47
2023-08-31T01:28:27.580Z,52.61
2023-08-31T01:29:27.586Z,52.56
2023-08-31T01:30:27.647Z,52.16
2023-08-31T01:31:27.579Z,51.88
2023-08-31T01:32:27.588Z,53.82
2023-08-31T01:33:27.568Z,52.62
2023-08-31T01:34:27.545Z,52.23
2023-08-31T01:35:27.608Z,52.09
2023-08-31T01:36:27.540Z,52.16
2023-08-31T01:37:27.524Z,52.17
2023-08-31T01:38:27.570Z,52.26
2023-08-31T01:39:27.579Z,52.13
2023-08-31T01:40:27.507Z,52.13
2023-08-31T01:41:27.552Z,52.17
2023-08-31T01:42:27.526Z,51.93
2023-08-31T01:43:27.473Z,51.86
2023-08-31T01:44:27.604Z,51.99
2023-08-31T01:45:27.555Z,52.10
2023-08-31T01:46:27.570Z,52.31
2023-08-31T01:47:27.433Z,52.23
2023-08-31T01:48:27.421Z,52.42
2023-08-31T01:49:27.498Z,52.34
2023-08-31T01:50:27.498Z,52.38
2023-08-31T01:51:27.413Z,52.50
2023-08-31T01:52:27.409Z,52.57
2023-08-31T01:53:27.427Z,52.41
2023-08-31T01:54:27.407Z,52.32
2023-08-31T01:55:27.425Z,52.17
2023-08-31T01:56:27.462Z,52.51
2023-08-31T01:57:27.372Z,52.38
2023-08-31T01:58:27.358Z,52.34
2023-08-31T01:59:27.394Z,52.54
2023-08-31T02:00:27.361Z,52.43
2023-08-31T02:01:27.396Z,52.58
2023-08-31T02:02:27.471Z,52.44
2023-08-31T02:03:27.448Z,52.30
2023-08-31T02:04:27.317Z,52.49
2023-08-31T02:05:27.388Z,52.54
2023-08-31T02:06:27.300Z,52.28
2023-08-31T02:07:27.302Z,52.43
2023-08-31T02:08:27.381Z,52.43
2023-08-31T02:09:27.272Z,52.43
2023-08-31T02:10:27.335Z,52.99
2023-08-31T02:11:27.272Z,52.76
2023-08-31T02:12:27.258Z,52.64
2023-08-31T02:13:27.258Z,52.16
2023-08-31T02:14:27.293Z,52.31
2023-08-31T02:15:27.286Z,52.58
2023-08-31T02:16:27.216Z,52.48
2023-08-31T02:17:27.298Z,52.49
2023-08-31T02:18:27.291Z,52.68
2023-08-31T02:19:27.188Z,52.35
2023-08-31T02:20:27.311Z,52.23
2023-08-31T02:21:27.192Z,52.22
2023-08-31T02:22:27.188Z,52.20
2023-08-31T02:23:27.210Z,52.26
2023-08-31T02:24:27.253Z,53.41
2023-08-31T02:25:27.231Z,52.21
2023-08-31T02:26:27.209Z,52.72
2023-08-31T02:27:27.192Z,52.02
2023-08-31T02:28:27.159Z,53.00
2023-08-31T02:29:27.153Z,53.42
2023-08-31T02:30:27.159Z,51.97
2023-08-31T02:31:27.181Z,51.82
2023-08-31T02:32:27.196Z,51.97
2023-08-31T02:33:27.102Z,52.15
2023-08-31T02:34:27.103Z,52.50
2023-08-31T02:35:27.104Z,54.01
2023-08-31T02:36:27.087Z,53.06
2023-08-31T02:37:27.093Z,53.21
2023-08-31T02:38:27.123Z,52.31
2023-08-31T02:39:27.086Z,52.67
2023-08-31T02:40:27.048Z,52.02
2023-08-31T02:41:27.109Z,51.94
2023-08-31T02:42:27.053Z,52.12
2023-08-31T02:43:27.038Z,52.06
2023-08-31T02:44:27.094Z,52.09
2023-08-31T02:45:27.044Z,54.07
2023-08-31T02:46:27.050Z,53.38
2023-08-31T02:47:27.012Z,55.01
2023-08-31T02:48:27.173Z,53.25
2023-08-31T02:49:26.996Z,52.78
2023-08-31T02:50:27.029Z,52.68
2023-08-31T02:51:26.976Z,52.24
2023-08-31T02:52:26.948Z,52.20
2023-08-31T02:53:26.945Z,51.99
2023-08-31T02:54:26.953Z,54.05
2023-08-31T02:55:26.960Z,52.86
2023-08-31T02:56:26.997Z,52.07
2023-08-31T02:57:26.931Z,54.23
2023-08-31T02:58:26.931Z,55.19
2023-08-31T02:59:26.914Z,52.06
2023-08-31T03:00:26.937Z,52.05
2023-08-31T03:01:26.909Z,52.30
2023-08-31T03:02:27.007Z,53.30
2023-08-31T03:03:26.898Z,52.20
2023-08-31T03:04:26.870Z,52.55
2023-08-31T03:05:26.879Z,52.24
2023-08-31T03:06:26.869Z,52.70
2023-08-31T03:07:26.863Z,53.64
2023-08-31T03:08:26.925Z,52.16
2023-08-31T03:09:26.869Z,52.20
2023-08-31T03:10:26.822Z,52.46
2023-08-31T03:11:26.809Z,52.49
2023-08-31T03:12:26.821Z,52.33
2023-08-31T03:13:26.820Z,52.46
2023-08-31T03:14:26.936Z,52.72
2023-08-31T03:15:26.854Z,54.92
2023-08-31T03:16:26.841Z,52.20
2023-08-31T03:17:26.792Z,52.20
2023-08-31T03:18:26.778Z,55.29
2023-08-31T03:19:26.908Z,52.37
2023-08-31T03:20:26.856Z,56.31
2023-08-31T03:21:26.772Z,52.20
2023-08-31T03:22:26.759Z,52.21
2023-08-31T03:23:26.758Z,52.26
2023-08-31T03:24:26.750Z,52.29
2023-08-31T03:25:26.776Z,52.43
2023-08-31T03:26:26.767Z,52.36
2023-08-31T03:27:26.687Z,52.22
2023-08-31T03:28:26.696Z,52.32
2023-08-31T03:29:26.701Z,57.28
2023-08-31T03:30:26.718Z,54.29
2023-08-31T03:31:26.722Z,54.25
2023-08-31T03:32:26.723Z,55.68
2023-08-31T03:33:26.659Z,54.47
2023-08-31T03:34:26.716Z,56.43
2023-08-31T03:35:26.715Z,56.06
2023-08-31T03:36:26.667Z,55.36
2023-08-31T03:37:26.683Z,52.72
2023-08-31T03:38:26.701Z,52.94
2023-08-31T03:39:26.702Z,53.12
2023-08-31T03:40:26.710Z,53.65
2023-08-31T03:41:26.726Z,55.23
2023-08-31T03:42:26.675Z,52.79
2023-08-31T03:43:26.671Z,53.66
2023-08-31T03:44:26.642Z,53.06
2023-08-31T03:45:26.600Z,53.25
2023-08-31T03:46:26.617Z,53.76
2023-08-31T03:47:26.648Z,57.39
2023-08-31T03:48:26.584Z,55.68
2023-08-31T03:49:26.545Z,53.38
2023-08-31T03:50:26.640Z,53.71
2023-08-31T03:51:26.614Z,53.95
2023-08-31T03:52:26.556Z,54.14
2023-08-31T03:53:26.514Z,54.73
2023-08-31T03:54:26.601Z,56.82
2023-08-31T03:55:26.578Z,56.93
2023-08-31T03:56:26.653Z,57.54
2023-08-31T03:57:26.572Z,55.52
2023-08-31T03:58:26.484Z,55.51
2023-08-31T03:59:26.578Z,57.68
2023-08-31T04:00:26.512Z,56.92
2023-08-31T04:01:26.593Z,54.82
2023-08-31T04:02:26.580Z,56.41
2023-08-31T04:03:26.588Z,56.37
2023-08-31T04:04:26.519Z,54.49
2023-08-31T04:05:26.430Z,56.71
2023-08-31T04:06:26.458Z,53.96
2023-08-31T04:07:26.458Z,54.84
2023-08-31T04:08:26.497Z,56.24
2023-08-31T04:09:26.544Z,54.19
2023-08-31T04:10:26.392Z,54.34
2023-08-31T04:11:26.464Z,55.65
2023-08-31T04:12:26.415Z,60.90
2023-08-31T04:13:26.454Z,57.76
2023-08-31T04:14:26.522Z,58.94
2023-08-31T04:15:26.470Z,54.41
2023-08-31T04:16:26.406Z,54.09
2023-08-31T04:17:26.415Z,53.75
2023-08-31T04:18:26.419Z,55.61
2023-08-31T04:19:26.393Z,54.46
2023-08-31T04:20:26.416Z,55.45
2023-08-31T04:21:26.369Z,53.75
2023-08-31T04:22:26.365Z,53.63
2023-08-31T04:23:26.355Z,56.56
2023-08-31T04:24:26.330Z,55.88
2023-08-31T04:25:26.340Z,56.80
2023-08-31T04:26:26.373Z,57.06
2023-08-31T04:27:26.401Z,59.55
2023-08-31T04:28:26.236Z,57.33
2023-08-31T04:29:26.290Z,54.47
2023-08-31T04:30:26.232Z,54.82
2023-08-31T04:31:26.293Z,58.04
2023-08-31T04:32:26.325Z,55.96
2023-08-31T04:33:26.267Z,57.22
2023-08-31T04:34:26.232Z,54.88
2023-08-31T04:35:26.262Z,58.48
2023-08-31T04:36:26.236Z,54.79
2023-08-31T04:37:26.257Z,54.27
2023-08-31T04:38:26.333Z,53.59
2023-08-31T04:39:26.304Z,56.39
2023-08-31T04:40:26.252Z,56.68
2023-08-31T04:41:26.173Z,55.25
2023-08-31T04:42:26.171Z,54.84
2023-08-31T04:43:26.131Z,55.90
2023-08-31T04:44:26.289Z,56.61
2023-08-31T04:45:26.140Z,54.80
2023-08-31T04:46:26.155Z,55.14
2023-08-31T04:47:26.176Z,59.57
2023-08-31T04:48:26.110Z,55.81
2023-08-31T04:49:26.117Z,56.60
2023-08-31T04:50:26.128Z,55.44
2023-08-31T04:51:26.082Z,57.34
2023-08-31T04:52:26.146Z,56.92
2023-08-31T04:53:26.154Z,55.57
2023-08-31T04:54:26.104Z,56.36
2023-08-31T04:55:26.067Z,57.98
2023-08-31T04:56:26.120Z,57.26
2023-08-31T04:57:26.106Z,56.50
2023-08-31T04:58:26.071Z,57.13
2023-08-31T04:59:26.104Z,59.11
2023-08-31T05:00:26.022Z,56.52
2023-08-31T05:01:26.078Z,58.60
2023-08-31T05:02:26.116Z,58.54
2023-08-31T05:03:26.010Z,56.57
2023-08-31T05:04:26.032Z,57.53
2023-08-31T05:05:26.041Z,57.01
2023-08-31T05:06:25.971Z,58.92
2023-08-31T05:07:25.975Z,59.16
2023-08-31T05:08:26.032Z,60.04
2023-08-31T05:09:26.032Z,60.02
2023-08-31T05:10:26.044Z,58.29
2023-08-31T05:11:25.968Z,59.90
2023-08-31T05:12:25.955Z,59.70
2023-08-31T05:13:25.979Z,57.11
2023-08-31T05:14:26.034Z,57.31
2023-08-31T05:15:25.933Z,56.09
2023-08-31T05:16:26.085Z,55.91
2023-08-31T05:17:25.991Z,58.22
2023-08-31T05:18:25.904Z,58.76
2023-08-31T05:19:27.774Z,60.67
2023-08-31T05:20:26.010Z,58.56
2023-08-31T05:21:25.847Z,58.96
2023-08-31T05:22:25.928Z,61.78
2023-08-31T05:23:25.934Z,63.78
2023-08-31T05:24:25.951Z,60.61
2023-08-31T05:25:28.458Z,63.31
2023-08-31T05:26:25.984Z,61.27
2023-08-31T05:27:25.906Z,62.10
2023-08-31T05:28:25.839Z,58.92
2023-08-31T05:29:25.844Z,59.96
2023-08-31T05:30:25.848Z,60.91
2023-08-31T05:31:25.866Z,60.60
2023-08-31T05:32:26.009Z,59.45
2023-08-31T05:33:25.842Z,60.14
2023-08-31T05:34:25.777Z,60.36
2023-08-31T05:35:25.873Z,58.72
2023-08-31T05:36:25.776Z,61.59
2023-08-31T05:37:25.856Z,57.06
2023-08-31T05:38:25.800Z,60.96
2023-08-31T05:39:25.801Z,55.66
2023-08-31T05:40:25.833Z,58.37
2023-08-31T05:41:25.760Z,60.78
2023-08-31T05:42:25.860Z,58.88
2023-08-31T05:43:25.736Z,59.94
2023-08-31T05:44:25.792Z,56.71
2023-08-31T05:45:25.735Z,60.54
2023-08-31T05:46:25.792Z,54.66
2023-08-31T05:47:25.735Z,58.11
2023-08-31T05:48:25.722Z,59.03
2023-08-31T05:49:25.714Z,58.61
2023-08-31T05:50:25.730Z,61.41
2023-08-31T05:51:25.716Z,58.11
2023-08-31T05:52:25.726Z,56.53
2023-08-31T05:53:25.710Z,59.33
2023-08-31T05:54:25.686Z,58.62
2023-08-31T05:55:25.722Z,56.05
2023-08-31T05:56:25.752Z,55.59
2023-08-31T05:57:25.627Z,58.65
2023-08-31T05:58:25.698Z,59.17
2023-08-31T05:59:25.600Z,59.82
2023-08-31T06:00:25.677Z,62.46
2023-08-31T06:01:25.740Z,62.70
2023-08-31T06:02:25.786Z,61.39
2023-08-31T06:03:25.557Z,61.73
2023-08-31T06:04:25.624Z,59.73
2023-08-31T06:05:25.611Z,57.55
2023-08-31T06:06:25.576Z,58.08
2023-08-31T06:07:25.622Z,60.32
2023-08-31T06:08:25.614Z,58.55
2023-08-31T06:09:25.779Z,56.78
2023-08-31T06:10:25.534Z,60.36
2023-08-31T06:12:26.447Z,61.93
2023-08-31T06:13:25.584Z,62.18
2023-08-31T06:14:25.654Z,60.56
2023-08-31T06:15:25.564Z,57.81
2023-08-31T06:16:25.618Z,58.24
2023-08-31T06:17:25.580Z,61.65
2023-08-31T06:18:25.480Z,58.75
2023-08-31T06:19:25.561Z,56.25
2023-08-31T06:20:25.547Z,60.43
2023-08-31T06:21:25.532Z,58.92
2023-08-31T06:22:25.516Z,60.87
2023-08-31T06:23:25.498Z,57.58
2023-08-31T06:24:25.526Z,57.63
2023-08-31T06:25:25.901Z,61.09
2023-08-31T06:26:25.979Z,61.96
2023-08-31T06:27:25.412Z,61.91
2023-08-31T06:28:25.474Z,63.02
2023-08-31T06:29:25.445Z,63.19
2023-08-31T06:30:25.422Z,61.26
2023-08-31T06:31:25.597Z,58.09
2023-08-31T06:32:25.580Z,59.83
2023-08-31T06:33:25.420Z,61.03
2023-08-31T06:34:25.375Z,59.00
2023-08-31T06:35:25.399Z,62.15
2023-08-31T06:36:25.338Z,60.54
2023-08-31T06:37:25.383Z,57.34
2023-08-31T06:38:25.420Z,59.46
2023-08-31T06:39:25.395Z,58.73
2023-08-31T06:40:25.372Z,61.31
2023-08-31T06:41:25.386Z,57.30
2023-08-31T06:42:26.602Z,57.97
2023-08-31T06:43:25.354Z,59.69
2023-08-31T06:44:25.329Z,56.69
2023-08-31T06:45:25.281Z,57.31
2023-08-31T06:46:25.646Z,56.60
2023-08-31T06:47:25.257Z,59.35
2023-08-31T06:48:25.318Z,60.48
2023-08-31T06:49:25.268Z,57.71
2023-08-31T06:50:25.380Z,58.33
2023-08-31T06:51:25.455Z,58.43
2023-08-31T06:53:25.308Z,56.99
2023-08-31T06:54:25.274Z,58.47
2023-08-31T06:55:25.230Z,58.76
2023-08-31T06:56:26.135Z,56.83
2023-08-31T06:57:25.182Z,58.11
2023-08-31T06:58:25.221Z,59.61
2023-08-31T06:59:25.265Z,60.46
2023-08-31T07:00:25.163Z,61.89
2023-08-31T07:01:25.262Z,60.37
2023-08-31T07:02:26.394Z,62.11
2023-08-31T07:03:27.371Z,58.25
2023-08-31T07:04:25.174Z,58.25
2023-08-31T07:05:25.136Z,59.16
2023-08-31T07:06:25.126Z,61.25
2023-08-31T07:07:25.174Z,59.18
2023-08-31T07:08:25.161Z,56.99
2023-08-31T07:09:25.111Z,59.95
2023-08-31T07:10:25.135Z,57.73
2023-08-31T07:11:25.164Z,57.15
2023-08-31T07:12:25.138Z,55.91
2023-08-31T07:13:25.107Z,58.05
2023-08-31T07:14:25.172Z,57.81
2023-08-31T07:15:25.102Z,59.98
2023-08-31T07:16:25.198Z,59.01
2023-08-31T07:17:25.131Z,56.05
2023-08-31T07:18:25.079Z,60.26
2023-08-31T07:19:25.040Z,57.44
2023-08-31T07:20:25.229Z,58.96
2023-08-31T07:21:25.047Z,57.14
2023-08-31T07:22:25.097Z,55.50
2023-08-31T07:23:25.060Z,56.52
2023-08-31T07:24:25.069Z,55.82
2023-08-31T07:25:25.090Z,59.22
2023-08-31T07:26:26.087Z,58.38
2023-08-31T07:27:25.020Z,58.10
2023-08-31T07:28:25.006Z,58.34
2023-08-31T07:29:24.996Z,57.68
2023-08-31T07:30:25.030Z,59.18
2023-08-31T07:31:24.984Z,60.26
2023-08-31T07:32:26.051Z,63.01
2023-08-31T07:33:30.941Z,58.03
2023-08-31T07:34:25.913Z,57.86
2023-08-31T07:35:24.955Z,58.97
2023-08-31T07:36:24.964Z,56.88
2023-08-31T07:37:24.909Z,59.73
2023-08-31T07:38:24.982Z,58.41
2023-08-31T07:39:24.931Z,59.82
2023-08-31T07:40:24.891Z,58.37
2023-08-31T07:41:24.949Z,57.83
2023-08-31T07:42:24.881Z,59.11
2023-08-31T07:43:24.939Z,59.41
2023-08-31T07:44:25.967Z,58.63
2023-08-31T07:45:24.878Z,58.08
2023-08-31T07:46:24.946Z,56.12
2023-08-31T07:47:24.859Z,59.47
2023-08-31T07:48:24.902Z,59.40
2023-08-31T07:49:24.797Z,59.55
2023-08-31T07:50:24.897Z,59.60
2023-08-31T07:51:24.799Z,58.68
2023-08-31T07:52:24.852Z,56.55
2023-08-31T07:53:24.866Z,55.71
2023-08-31T07:54:24.806Z,59.95
2023-08-31T07:55:24.840Z,58.03
2023-08-31T07:56:24.875Z,57.76
2023-08-31T07:57:24.776Z,55.85
2023-08-31T07:58:24.807Z,58.56
2023-08-31T07:59:24.811Z,56.85
2023-08-31T08:00:24.839Z,59.27
2023-08-31T08:01:24.831Z,58.21
2023-08-31T08:02:24.990Z,57.75
2023-08-31T08:03:24.923Z,56.67
2023-08-31T08:04:24.742Z,60.80
2023-08-31T08:05:24.706Z,58.54
2023-08-31T08:06:24.738Z,60.36
2023-08-31T08:07:24.765Z,57.64
2023-08-31T08:08:25.762Z,59.92
2023-08-31T08:09:24.754Z,59.70
2023-08-31T08:10:24.664Z,58.39
2023-08-31T08:11:24.705Z,57.53
2023-08-31T08:12:24.671Z,58.15
2023-08-31T08:13:24.710Z,58.16
2023-08-31T08:14:25.786Z,62.43
2023-08-31T08:15:24.720Z,60.70
2023-08-31T08:16:24.721Z,60.15
2023-08-31T08:17:24.623Z,61.80
2023-08-31T08:18:24.662Z,58.33
2023-08-31T08:19:24.671Z,57.89
2023-08-31T08:20:24.670Z,57.14
2023-08-31T08:21:24.589Z,59.23
2023-08-31T08:22:24.675Z,58.00
2023-08-31T08:23:24.669Z,56.09
2023-08-31T08:24:24.646Z,55.34
2023-08-31T08:25:24.573Z,57.99
2023-08-31T08:26:24.700Z,57.52
2023-08-31T08:27:24.559Z,60.26
2023-08-31T08:28:24.606Z,57.50
2023-08-31T08:29:24.555Z,55.87
2023-08-31T08:30:24.574Z,57.10
2023-08-31T08:31:25.777Z,57.61
2023-08-31T08:32:24.728Z,56.87
2023-08-31T08:33:24.528Z,58.26
2023-08-31T08:34:24.519Z,59.03
2023-08-31T08:35:24.573Z,61.37
2023-08-31T08:36:24.490Z,58.83
2023-08-31T08:37:24.489Z,60.36
2023-08-31T08:38:24.572Z,57.44
2023-08-31T08:39:24.510Z,57.62
2023-08-31T08:40:24.474Z,58.51
2023-08-31T08:41:24.518Z,57.53
2023-08-31T08:42:24.503Z,58.44
2023-08-31T08:43:24.499Z,59.09
2023-08-31T08:44:24.573Z,57.49
2023-08-31T08:45:24.467Z,57.63
2023-08-31T08:46:24.486Z,57.99
2023-08-31T08:47:24.503Z,57.67
2023-08-31T08:48:24.377Z,60.18
2023-08-31T08:49:24.404Z,60.35
2023-08-31T08:50:24.531Z,60.57
2023-08-31T08:51:24.381Z,58.96
2023-08-31T08:52:24.439Z,59.79
2023-08-31T08:53:24.395Z,56.69
2023-08-31T08:54:24.352Z,56.65
2023-08-31T08:55:24.366Z,57.28
2023-08-31T08:56:24.439Z,58.04
2023-08-31T08:57:24.413Z,59.07
2023-08-31T08:58:24.397Z,57.32
2023-08-31T08:59:24.387Z,57.58
2023-08-31T09:00:24.323Z,56.22
2023-08-31T09:01:24.492Z,58.83
2023-08-31T09:02:24.400Z,57.77
2023-08-31T09:03:24.305Z,56.51
2023-08-31T09:04:24.313Z,58.23
2023-08-31T09:05:24.430Z,58.76
2023-08-31T09:06:24.335Z,59.18
2023-08-31T09:07:24.270Z,58.19
2023-08-31T09:08:24.381Z,59.14
2023-08-31T09:09:24.308Z,57.76
2023-08-31T09:10:24.314Z,56.79
2023-08-31T09:11:24.349Z,54.91
2023-08-31T09:12:24.229Z,58.69
2023-08-31T09:13:24.212Z,56.94
2023-08-31T09:14:24.268Z,56.67
2023-08-31T09:15:24.289Z,58.58
2023-08-31T09:16:24.311Z,55.13
2023-08-31T09:17:24.323Z,56.89
2023-08-31T09:18:24.224Z,58.81
2023-08-31T09:19:24.227Z,58.28
2023-08-31T09:20:24.237Z,58.31
2023-08-31T09:21:24.170Z,57.19
2023-08-31T09:22:24.146Z,58.43
2023-08-31T09:23:24.182Z,56.29
2023-08-31T09:24:24.149Z,57.03
2023-08-31T09:25:24.176Z,56.85
2023-08-31T09:26:24.159Z,58.84
2023-08-31T09:27:24.251Z,56.45
2023-08-31T09:28:24.141Z,56.42
2023-08-31T09:29:24.161Z,55.48
2023-08-31T09:30:24.143Z,54.45
2023-08-31T09:31:24.179Z,54.05
2023-08-31T09:32:24.366Z,54.44
2023-08-31T09:33:24.121Z,54.59
2023-08-31T09:34:24.077Z,56.95
2023-08-31T09:35:25.492Z,59.66
2023-08-31T09:36:24.032Z,59.22
2023-08-31T09:37:24.054Z,57.64
2023-08-31T09:38:24.131Z,56.79
2023-08-31T09:39:24.078Z,55.83
2023-08-31T09:40:24.089Z,57.32
2023-08-31T09:41:24.073Z,59.08
2023-08-31T09:42:24.013Z,57.84
2023-08-31T09:43:24.017Z,57.87
2023-08-31T09:44:24.095Z,57.79
2023-08-31T09:45:32.334Z,56.83
2023-08-31T09:46:25.013Z,55.92
2023-08-31T09:47:23.990Z,56.72
2023-08-31T09:48:24.065Z,55.78
2023-08-31T09:49:23.995Z,56.11
2023-08-31T09:50:24.062Z,56.66
2023-08-31T09:51:23.938Z,54.67
2023-08-31T09:52:23.964Z,55.14
2023-08-31T09:53:23.947Z,56.03
2023-08-31T09:54:23.970Z,58.16
2023-08-31T09:55:23.908Z,59.06
2023-08-31T09:56:23.951Z,57.68
2023-08-31T09:57:36.169Z,57.71
2023-08-31T09:58:25.009Z,58.23
2023-08-31T09:59:23.960Z,58.06
2023-08-31T10:00:23.849Z,57.75
2023-08-31T10:01:29.826Z,57.38
2023-08-31T10:02:25.054Z,57.00
2023-08-31T10:03:23.966Z,58.06
2023-08-31T10:04:23.906Z,56.88
2023-08-31T10:05:25.669Z,54.98
2023-08-31T10:06:23.912Z,57.12
2023-08-31T10:07:23.837Z,56.17
2023-08-31T10:08:23.917Z,56.87
2023-08-31T10:09:23.875Z,57.12
2023-08-31T10:10:23.817Z,57.78
2023-08-31T10:11:23.803Z,58.76
2023-08-31T10:12:23.911Z,57.69
2023-08-31T10:13:23.840Z,57.60
2023-08-31T10:14:24.843Z,55.43
2023-08-31T10:15:23.880Z,55.89
2023-08-31T10:16:23.819Z,56.38
2023-08-31T10:17:23.820Z,54.50
2023-08-31T10:18:23.808Z,57.29
2023-08-31T10:19:23.790Z,57.14
2023-08-31T10:20:24.800Z,54.73
2023-08-31T10:21:23.856Z,57.97
2023-08-31T10:22:23.741Z,56.40
2023-08-31T10:23:23.769Z,55.22
2023-08-31T10:24:23.695Z,56.71
2023-08-31T10:25:23.722Z,58.04
2023-08-31T10:26:23.752Z,56.26
2023-08-31T10:27:23.682Z,56.64
2023-08-31T10:28:23.740Z,57.78
2023-08-31T10:29:23.697Z,56.23
2023-08-31T10:30:23.682Z,53.66
2023-08-31T10:31:23.915Z,56.66
2023-08-31T10:32:23.849Z,55.30
2023-08-31T10:33:23.667Z,57.61
2023-08-31T10:34:23.625Z,58.65
2023-08-31T10:35:23.663Z,60.56
2023-08-31T10:36:23.657Z,57.71
2023-08-31T10:37:23.681Z,57.30
2023-08-31T10:38:23.724Z,55.58
2023-08-31T10:39:23.585Z,58.72
2023-08-31T10:40:23.560Z,57.21
2023-08-31T10:41:23.645Z,59.61
2023-08-31T10:42:23.606Z,58.28
2023-08-31T10:43:27.136Z,57.18
2023-08-31T10:44:24.666Z,54.04
2023-08-31T10:45:23.541Z,53.27
2023-08-31T10:46:23.536Z,53.42
2023-08-31T10:47:23.618Z,52.94
2023-08-31T10:48:23.517Z,55.70
2023-08-31T10:49:23.566Z,55.24
2023-08-31T10:50:24.626Z,56.52
2023-08-31T10:51:23.552Z,58.31
2023-08-31T10:52:40.435Z,57.42
2023-08-31T10:53:24.520Z,56.61
2023-08-31T10:54:23.534Z,58.69
2023-08-31T10:55:23.468Z,56.58
2023-08-31T10:56:23.601Z,57.12
2023-08-31T10:57:23.520Z,59.51
2023-08-31T10:58:23.453Z,57.64
2023-08-31T10:59:23.483Z,58.67
2023-08-31T11:00:23.497Z,57.36
2023-08-31T11:01:23.494Z,56.48
2023-08-31T11:02:23.486Z,58.43
2023-08-31T11:03:23.590Z,57.40
2023-08-31T11:04:23.621Z,56.35
2023-08-31T11:05:24.868Z,54.87
2023-08-31T11:06:23.457Z,55.89
2023-08-31T11:07:23.433Z,55.89
2023-08-31T11:08:23.422Z,57.47
2023-08-31T11:09:23.383Z,58.09
2023-08-31T11:10:23.387Z,56.35
2023-08-31T11:11:23.409Z,58.05
2023-08-31T11:12:23.354Z,56.87
2023-08-31T11:13:23.399Z,57.85
2023-08-31T11:14:23.457Z,57.73
2023-08-31T11:15:23.440Z,54.45
2023-08-31T11:16:23.395Z,56.84
2023-08-31T11:17:23.297Z,56.08
2023-08-31T11:18:23.372Z,56.61
2023-08-31T11:19:23.369Z,54.46
2023-08-31T11:20:23.379Z,56.20
2023-08-31T11:21:23.289Z,54.54
2023-08-31T11:22:23.262Z,55.77
2023-08-31T11:23:23.356Z,57.79
2023-08-31T11:24:23.318Z,57.36
2023-08-31T11:25:23.237Z,56.50
2023-08-31T11:26:23.384Z,56.15
2023-08-31T11:27:23.265Z,57.05
2023-08-31T11:28:23.297Z,60.13
2023-08-31T11:29:23.268Z,56.17
2023-08-31T11:30:23.241Z,54.03
2023-08-31T11:31:23.337Z,54.48
2023-08-31T11:32:23.286Z,54.96
2023-08-31T11:33:23.253Z,58.11
2023-08-31T11:34:23.249Z,55.00
2023-08-31T11:35:23.248Z,54.33
2023-08-31T11:36:23.250Z,55.32
2023-08-31T11:37:23.168Z,55.21
2023-08-31T11:38:23.276Z,54.12
2023-08-31T11:39:23.161Z,58.57
2023-08-31T11:40:23.253Z,58.25
2023-08-31T11:41:23.200Z,57.01
2023-08-31T11:42:23.178Z,58.73
2023-08-31T11:43:23.114Z,56.46
2023-08-31T11:44:23.680Z,54.38
2023-08-31T11:45:23.207Z,55.59
2023-08-31T11:46:23.171Z,54.98
2023-08-31T11:47:23.114Z,55.61
2023-08-31T11:48:23.154Z,57.25
2023-08-31T11:49:23.153Z,55.75
2023-08-31T11:50:23.182Z,53.13
2023-08-31T11:51:23.075Z,53.01
2023-08-31T11:52:23.130Z,55.80
2023-08-31T11:53:23.129Z,57.12
2023-08-31T11:54:23.116Z,57.81
2023-08-31T11:55:23.165Z,57.68
2023-08-31T11:56:23.094Z,57.26
2023-08-31T11:57:23.044Z,57.48
2023-08-31T11:58:23.085Z,56.39
2023-08-31T11:59:23.011Z,54.11
2023-08-31T12:00:23.036Z,60.93
2023-08-31T12:01:23.054Z,64.27
2023-08-31T12:02:23.096Z,64.62
2023-08-31T12:03:27.464Z,66.50
2023-08-31T12:04:24.109Z,66.84
2023-08-31T12:05:22.982Z,66.57
2023-08-31T12:06:23.021Z,66.15
2023-08-31T12:07:23.052Z,65.12
2023-08-31T12:08:23.066Z,64.46
2023-08-31T12:09:22.972Z,65.06
2023-08-31T12:10:23.009Z,64.52
2023-08-31T12:11:22.940Z,64.73
2023-08-31T12:12:22.893Z,65.16
2023-08-31T12:13:22.981Z,64.00
2023-08-31T12:14:23.362Z,63.83
2023-08-31T12:15:22.968Z,64.03
2023-08-31T12:16:23.016Z,63.76
2023-08-31T12:17:22.913Z,63.55
2023-08-31T12:18:22.873Z,60.53
2023-08-31T12:19:22.883Z,62.73
2023-08-31T12:20:22.991Z,58.90
2023-08-31T12:21:22.937Z,62.22
2023-08-31T12:22:22.866Z,60.64
2023-08-31T12:23:22.952Z,63.67
2023-08-31T12:24:22.829Z,64.68
2023-08-31T12:25:22.907Z,63.29
2023-08-31T12:26:22.868Z,64.75
2023-08-31T12:27:22.844Z,64.69
2023-08-31T12:28:22.894Z,64.18
2023-08-31T12:29:22.849Z,61.64
2023-08-31T12:30:22.888Z,64.97
2023-08-31T12:31:22.895Z,64.41
2023-08-31T12:32:22.886Z,64.87
2023-08-31T12:33:22.928Z,65.79
2023-08-31T12:34:22.777Z,62.35
2023-08-31T12:35:22.796Z,59.89
2023-08-31T12:36:22.798Z,60.34
2023-08-31T12:37:22.841Z,59.40
2023-08-31T12:38:23.851Z,60.93
2023-08-31T12:39:22.800Z,62.14
2023-08-31T12:40:22.812Z,66.11
2023-08-31T12:41:24.830Z,66.09
2023-08-31T12:42:24.171Z,67.21
2023-08-31T12:43:22.736Z,67.81
2023-08-31T12:44:22.782Z,64.94
2023-08-31T12:45:22.799Z,66.90
2023-08-31T12:46:22.757Z,66.97
2023-08-31T12:47:22.717Z,64.44
2023-08-31T12:48:22.744Z,59.81
2023-08-31T12:49:22.792Z,55.55
2023-08-31T12:50:22.792Z,58.86
2023-08-31T12:51:22.648Z,55.23
2023-08-31T12:52:24.828Z,57.77
2023-08-31T12:53:22.654Z,55.88
2023-08-31T12:54:22.718Z,57.72